Time;durP1;ratioP1;P1;durP2;ratioP2;P2;SDS_P1;SDS_P2;PMS_P1;PMS_P2;Temp;Humidity;BMP_temperature;BMP_pressure;BME280_temperature;BME280_humidity;BME280_pressure;Samples;Min_cycle;Max_cycle;Signal;HPM_P1;HPM_P2
2024/02/19 00:01:44;;;;;;;10.30;5.73;;;11.60;99.90;;;;;;5057071;28;20421;-34
2024/02/19 00:04:10;;;;;;;7.23;4.83;;;11.60;99.90;;;;;;5054997;28;20542;-32
2024/02/19 00:06:38;;;;;;;7.30;5.20;;;11.60;99.90;;;;;;5022151;28;21219;-29
2024/02/19 00:09:06;;;;;;;8.03;5.13;;;11.60;99.90;;;;;;5018374;28;20811;-34
2024/02/19 00:11:35;;;;;;;7.17;5.13;;;11.60;99.90;;;;;;5014238;28;20485;-31
2024/02/19 00:14:01;;;;;;;9.50;4.90;;;11.60;99.90;;;;;;5017245;28;20449;-33
2024/02/19 00:16:27;;;;;;;10.50;5.43;;;11.60;99.90;;;;;;5060800;28;20458;-30
2024/02/19 00:18:54;;;;;;;9.60;5.20;;;11.60;99.90;;;;;;5058295;28;20204;-28
2024/02/19 00:21:20;;;;;;;10.83;5.17;;;11.60;99.90;;;;;;5020373;28;20514;-32
2024/02/19 00:23:46;;;;;;;12.17;5.00;;;11.60;99.90;;;;;;5055281;28;20741;-28
2024/02/19 00:26:13;;;;;;;10.43;5.10;;;11.60;99.90;;;;;;5049888;28;20449;-30
2024/02/19 00:28:39;;;;;;;7.87;5.00;;;11.60;99.90;;;;;;5014361;28;20486;-28
2024/02/19 00:31:12;;;;;;;8.60;4.60;;;11.60;99.90;;;;;;5023083;28;20522;-32
2024/02/19 00:33:38;;;;;;;4.73;4.30;;;11.60;99.90;;;;;;5053661;28;20442;-30
2024/02/19 00:36:07;;;;;;;8.20;4.97;;;11.60;99.90;;;;;;5044294;28;20469;-34
2024/02/19 00:38:35;;;;;;;9.80;4.83;;;11.60;99.90;;;;;;5053138;28;21423;-32
2024/02/19 00:41:04;;;;;;;9.73;5.33;;;11.60;99.90;;;;;;5045343;28;20426;-31
2024/02/19 00:43:36;;;;;;;9.53;5.27;;;11.60;99.90;;;;;;5050547;28;20523;-31
2024/02/19 00:46:07;;;;;;;10.50;5.63;;;11.60;99.90;;;;;;5034131;28;20445;-28
2024/02/19 00:48:35;;;;;;;7.60;5.50;;;11.60;99.90;;;;;;5053227;28;20529;-31
2024/02/19 00:51:07;;;;;;;9.70;5.77;;;11.60;99.90;;;;;;5052667;28;20430;-33
2024/02/19 00:53:35;;;;;;;13.10;6.17;;;11.60;99.90;;;;;;5027563;28;20451;-32
2024/02/19 00:56:01;;;;;;;9.67;5.60;;;11.60;99.90;;;;;;5012242;28;21289;-32
2024/02/19 00:58:32;;;;;;;10.73;5.90;;;11.60;99.90;;;;;;5044620;28;20447;-32
2024/02/19 01:01:00;;;;;;;11.30;5.60;;;11.60;99.90;;;;;;5049713;28;21047;-31
2024/02/19 01:03:26;;;;;;;10.70;5.93;;;11.60;99.90;;;;;;5020192;28;20996;-30
2024/02/19 01:05:52;;;;;;;11.93;5.20;;;11.60;99.90;;;;;;5045458;28;20530;-31
2024/02/19 01:08:20;;;;;;;19.10;6.03;;;11.60;99.90;;;;;;5047491;28;20508;-32
2024/02/19 01:10:49;;;;;;;17.57;5.47;;;11.60;99.90;;;;;;5048440;28;20491;-32
2024/02/19 01:13:16;;;;;;;10.47;5.63;;;11.60;99.90;;;;;;5008098;28;20461;-36
2024/02/19 01:15:42;;;;;;;8.33;4.50;;;11.60;99.90;;;;;;5009496;28;20430;-31
2024/02/19 01:18:10;;;;;;;7.83;5.07;;;11.60;99.90;;;;;;5021652;28;20504;-34
2024/02/19 01:20:41;;;;;;;11.83;5.57;;;11.60;99.90;;;;;;5049029;28;20415;-30
2024/02/19 01:23:07;;;;;;;9.10;5.30;;;11.60;99.90;;;;;;5024847;28;20504;-30
2024/02/19 01:25:34;;;;;;;11.83;5.20;;;11.60;99.90;;;;;;5026391;28;20501;-29
2024/02/19 01:28:00;;;;;;;9.00;4.53;;;11.60;99.90;;;;;;5041950;28;20424;-30
2024/02/19 01:30:26;;;;;;;9.13;3.60;;;11.60;99.90;;;;;;5046435;28;20845;-29
2024/02/19 01:32:52;;;;;;;13.10;5.47;;;11.50;99.90;;;;;;5054514;28;21197;-29
2024/02/19 01:35:22;;;;;;;9.77;4.00;;;11.60;99.90;;;;;;5045193;28;20431;-34
2024/02/19 01:37:52;;;;;;;11.40;4.10;;;11.60;99.90;;;;;;5044117;28;20565;-35
2024/02/19 01:40:18;;;;;;;7.17;3.77;;;11.60;99.90;;;;;;5044812;28;20465;-32
2024/02/19 01:42:46;;;;;;;7.30;3.87;;;11.60;99.90;;;;;;5026020;28;20439;-33
2024/02/19 01:45:26;;;;;;;6.90;3.73;;;11.50;99.90;;;;;;5012100;28;20936;-32
2024/02/19 01:47:54;;;;;;;12.87;4.33;;;11.50;99.90;;;;;;5042786;28;20904;-32
2024/02/19 01:50:24;;;;;;;5.97;3.43;;;11.60;99.90;;;;;;5027066;28;21255;-30
2024/02/19 01:52:51;;;;;;;8.37;3.73;;;11.50;99.90;;;;;;5046249;28;21127;-31
2024/02/19 01:55:19;;;;;;;13.27;3.97;;;11.50;99.90;;;;;;5031161;28;21070;-29
2024/02/19 01:57:46;;;;;;;8.93;3.13;;;11.50;99.90;;;;;;5034158;28;20463;-33
2024/02/19 02:00:13;;;;;;;9.03;3.53;;;11.50;99.90;;;;;;5025783;28;20545;-33
2024/02/19 02:02:40;;;;;;;12.73;3.73;;;11.50;99.90;;;;;;5013653;28;20643;-31
2024/02/19 02:05:06;;;;;;;4.83;2.80;;;11.50;99.90;;;;;;5041666;28;20465;-32
2024/02/19 02:07:35;;;;;;;8.63;3.73;;;11.50;99.90;;;;;;5044153;28;20469;-33
2024/02/19 02:10:06;;;;;;;7.90;3.27;;;11.50;99.90;;;;;;5044244;28;21009;-30
2024/02/19 02:12:39;;;;;;;6.13;2.77;;;11.50;99.90;;;;;;5028287;28;20422;-34
2024/02/19 02:15:05;;;;;;;6.10;2.97;;;11.50;99.90;;;;;;5007269;28;20435;-31
2024/02/19 02:17:31;;;;;;;9.03;3.30;;;11.50;99.90;;;;;;5029240;28;20496;-34
2024/02/19 02:19:57;;;;;;;8.23;2.87;;;11.50;99.90;;;;;;5040889;28;20427;-30
2024/02/19 02:22:23;;;;;;;6.13;3.30;;;11.50;99.90;;;;;;5022405;28;20435;-32
2024/02/19 02:24:52;;;;;;;7.30;3.40;;;11.50;99.90;;;;;;5045760;28;20425;-29
2024/02/19 02:27:21;;;;;;;8.47;3.77;;;11.50;99.90;;;;;;5028850;28;20964;-33
2024/02/19 02:29:47;;;;;;;7.97;3.70;;;11.50;99.90;;;;;;5025024;28;20454;-28
2024/02/19 02:32:13;;;;;;;7.60;3.77;;;11.50;99.90;;;;;;5039491;28;20437;-33
2024/02/19 02:34:42;;;;;;;10.10;3.30;;;11.50;99.90;;;;;;5045721;28;20524;-29
2024/02/19 02:37:12;;;;;;;11.00;3.37;;;11.50;99.90;;;;;;5021507;28;20996;-30
2024/02/19 02:39:40;;;;;;;7.63;3.23;;;11.50;99.90;;;;;;5004155;28;20472;-33
2024/02/19 02:42:11;;;;;;;6.90;3.50;;;11.50;99.90;;;;;;5030038;28;20437;-28
2024/02/19 02:44:37;;;;;;;11.00;3.37;;;11.50;99.90;;;;;;5025237;28;20443;-31
2024/02/19 02:47:03;;;;;;;11.00;3.60;;;11.50;99.90;;;;;;5022233;28;20442;-32
2024/02/19 02:49:29;;;;;;;14.20;4.77;;;11.50;99.90;;;;;;5025321;28;20435;-33
2024/02/19 02:51:55;;;;;;;11.57;4.90;;;11.50;99.90;;;;;;5052937;28;20510;-29
2024/02/19 02:54:27;;;;;;;9.63;3.90;;;11.50;99.90;;;;;;5023140;28;21156;-33
2024/02/19 02:56:53;;;;;;;12.00;4.30;;;11.50;99.90;;;;;;5022364;28;20478;-32
2024/02/19 02:59:19;;;;;;;11.37;4.27;;;11.50;99.90;;;;;;5041624;28;20454;-34
2024/02/19 03:01:45;;;;;;;7.47;3.57;;;11.50;99.90;;;;;;5042967;28;20435;-31
2024/02/19 03:04:11;;;;;;;7.53;4.07;;;11.50;99.90;;;;;;5026123;28;20471;-30
2024/02/19 03:06:37;;;;;;;12.83;4.03;;;11.50;99.90;;;;;;5043257;28;20438;-34
2024/02/19 03:09:06;;;;;;;11.87;4.37;;;11.50;99.90;;;;;;5046681;28;20970;-32
2024/02/19 03:11:32;;;;;;;7.17;3.93;;;11.50;99.90;;;;;;5050265;28;20431;-34
2024/02/19 03:14:06;;;;;;;14.47;4.17;;;11.50;99.90;;;;;;5053549;28;20452;-33
2024/02/19 03:16:34;;;;;;;17.27;4.37;;;11.50;99.90;;;;;;5052629;28;20463;-35
2024/02/19 03:19:04;;;;;;;9.27;4.90;;;11.50;99.90;;;;;;5055080;28;20503;-38
2024/02/19 03:21:31;;;;;;;15.97;5.17;;;11.50;99.90;;;;;;5055755;28;20433;-36
2024/02/19 03:24:00;;;;;;;11.73;4.57;;;11.50;99.90;;;;;;5012800;28;20469;-31
2024/02/19 03:26:28;;;;;;;9.27;3.93;;;11.50;99.90;;;;;;5058142;28;21421;-31
2024/02/19 03:28:57;;;;;;;11.50;4.17;;;11.50;99.90;;;;;;5013267;28;20465;-33
2024/02/19 03:31:23;;;;;;;13.23;4.50;;;11.50;99.90;;;;;;5052121;28;20789;-30
2024/02/19 03:33:52;;;;;;;14.00;5.00;;;11.50;99.90;;;;;;5015600;28;20455;-30
2024/02/19 03:36:22;;;;;;;11.20;3.60;;;11.50;99.90;;;;;;5046456;28;20462;-35
2024/02/19 03:38:49;;;;;;;8.63;4.27;;;11.50;99.90;;;;;;4995176;28;20429;-36
2024/02/19 03:41:15;;;;;;;9.20;4.17;;;11.50;99.90;;;;;;5022724;28;20410;-32
2024/02/19 03:43:44;;;;;;;16.97;5.07;;;11.50;99.90;;;;;;5059927;28;21003;-35
2024/02/19 03:46:13;;;;;;;8.90;3.43;;;11.50;99.90;;;;;;5059924;28;20431;-36
2024/02/19 03:48:42;;;;;;;10.57;3.80;;;11.50;99.90;;;;;;5016688;28;20474;-30
2024/02/19 03:51:10;;;;;;;7.77;3.50;;;11.50;99.90;;;;;;5020856;28;20429;-39
2024/02/19 03:53:40;;;;;;;13.40;3.93;;;11.50;99.90;;;;;;4994196;28;20697;-35
2024/02/19 03:56:09;;;;;;;10.27;4.23;;;11.50;99.90;;;;;;5051072;28;20670;-34
2024/02/19 03:58:35;;;;;;;10.10;3.57;;;11.50;99.90;;;;;;5058272;28;20445;-32
2024/02/19 04:01:01;;;;;;;9.80;3.80;;;11.50;99.90;;;;;;5059010;28;20447;-35
2024/02/19 16:02:54;;;;;;;17.27;8.57;;;11.80;99.90;;;;;;5072508;28;20508;-32
2024/02/19 16:05:20;;;;;;;15.87;8.40;;;11.80;99.90;;;;;;4963221;28;20767;-31
2024/02/19 16:07:53;;;;;;;18.80;10.87;;;11.90;99.90;;;;;;4966071;28;20469;-34
2024/02/19 16:10:23;;;;;;;14.07;8.67;;;11.90;99.90;;;;;;4963144;28;20433;-31
2024/02/19 16:12:52;;;;;;;13.60;8.40;;;11.90;99.90;;;;;;4940832;28;20497;-31
2024/02/19 16:15:21;;;;;;;14.83;8.77;;;11.90;99.90;;;;;;4963628;28;20430;-29
2024/02/19 16:17:49;;;;;;;14.90;8.50;;;11.90;99.90;;;;;;4929381;28;20554;-31
2024/02/19 16:20:15;;;;;;;13.53;9.47;;;11.90;99.90;;;;;;4941902;28;20450;-28
2024/02/19 16:22:50;;;;;;;11.97;9.20;;;11.90;99.90;;;;;;4959383;28;20601;-29
2024/02/19 16:25:19;;;;;;;12.00;8.07;;;11.90;99.90;;;;;;4958661;28;20433;-29
2024/02/19 16:27:50;;;;;;;13.17;8.77;;;11.90;99.90;;;;;;4959558;28;20434;-30
2024/02/19 16:30:17;;;;;;;14.20;7.90;;;11.90;99.90;;;;;;4970202;28;20465;-29
2024/02/19 16:32:43;;;;;;;13.87;8.17;;;12.00;99.90;;;;;;4964131;28;20430;-28
2024/02/19 16:35:14;;;;;;;9.40;7.80;;;12.00;99.90;;;;;;4957736;28;20430;-29
2024/02/19 16:37:45;;;;;;;10.90;7.77;;;12.00;99.90;;;;;;4952347;28;20514;-28
2024/02/19 16:40:11;;;;;;;13.10;8.27;;;12.00;99.90;;;;;;4923733;28;20442;-28
2024/02/19 16:42:40;;;;;;;12.00;8.03;;;12.00;99.90;;;;;;4962181;28;20422;-28
2024/02/19 16:45:06;;;;;;;12.27;8.27;;;12.00;99.90;;;;;;4960838;28;20435;-32
2024/02/19 16:47:32;;;;;;;11.07;7.23;;;12.00;99.90;;;;;;4933784;28;20521;-34
2024/02/19 16:49:58;;;;;;;9.43;7.90;;;12.00;99.90;;;;;;4961168;28;20426;-30
2024/02/19 16:52:27;;;;;;;8.60;7.37;;;11.90;99.90;;;;;;4956233;28;21015;-34
2024/02/19 16:54:54;;;;;;;12.13;8.17;;;12.00;99.90;;;;;;4964975;28;21393;-31
2024/02/19 16:57:23;;;;;;;12.70;6.93;;;12.00;99.90;;;;;;4941826;28;20561;-32
2024/02/19 16:59:52;;;;;;;13.47;6.93;;;12.00;99.90;;;;;;4958570;28;21307;-35
2024/02/19 17:02:18;;;;;;;11.20;7.37;;;11.90;99.90;;;;;;4957230;28;20561;-32
2024/02/19 17:04:48;;;;;;;11.93;7.70;;;11.90;99.90;;;;;;4941210;28;20477;-33
2024/02/19 17:07:18;;;;;;;14.60;7.30;;;11.90;99.90;;;;;;4942671;28;20426;-33
2024/02/19 17:09:47;;;;;;;13.13;6.90;;;11.90;99.90;;;;;;4945790;28;20498;-36
2024/02/19 17:12:14;;;;;;;11.33;6.53;;;11.90;99.90;;;;;;4959169;28;20440;-31
2024/02/19 17:14:42;;;;;;;10.67;7.23;;;11.90;99.90;;;;;;4959766;28;20477;-33
2024/02/19 17:17:12;;;;;;;14.93;7.90;;;11.90;99.90;;;;;;4958952;28;20557;-32
2024/02/19 17:19:41;;;;;;;10.80;6.77;;;11.90;99.90;;;;;;4927250;28;21059;-34
2024/02/19 17:22:07;;;;;;;8.83;6.77;;;11.90;99.90;;;;;;4961005;28;20426;-32
2024/02/19 17:24:38;;;;;;;10.57;6.57;;;11.90;99.90;;;;;;4962746;28;20497;-29
2024/02/19 17:27:04;;;;;;;10.47;6.73;;;11.90;99.90;;;;;;4960583;28;20434;-28
2024/02/19 17:29:30;;;;;;;10.73;7.37;;;11.90;99.90;;;;;;4962502;28;20845;-28
2024/02/19 17:32:00;;;;;;;14.50;7.80;;;11.90;99.90;;;;;;4961519;28;20454;-29
2024/02/19 17:34:26;;;;;;;11.00;7.23;;;11.90;99.90;;;;;;4943252;28;20856;-28
2024/02/19 17:36:56;;;;;;;9.30;7.50;;;11.90;99.90;;;;;;4944296;28;20470;-28
2024/02/19 17:39:25;;;;;;;12.93;7.20;;;11.90;99.90;;;;;;4962624;28;20422;-28
2024/02/19 17:41:51;;;;;;;11.13;6.93;;;11.90;99.90;;;;;;4945203;28;20426;-28
2024/02/19 17:44:23;;;;;;;14.20;7.50;;;11.90;99.90;;;;;;4963651;28;20938;-28
2024/02/19 17:46:54;;;;;;;13.13;7.20;;;11.90;99.90;;;;;;4969423;28;20478;-30
2024/02/19 17:49:22;;;;;;;13.43;7.70;;;11.90;99.90;;;;;;4945933;28;20456;-31
2024/02/19 17:51:51;;;;;;;12.83;7.83;;;11.90;99.90;;;;;;4961028;28;20414;-36
2024/02/19 17:54:20;;;;;;;10.30;7.47;;;11.90;99.90;;;;;;4942862;28;20962;-37
2024/02/19 17:56:47;;;;;;;11.63;7.40;;;11.90;99.90;;;;;;4958060;28;20475;-35
2024/02/19 17:59:14;;;;;;;16.23;7.57;;;11.90;99.90;;;;;;4959405;28;20418;-33
2024/02/19 18:01:45;;;;;;;9.73;6.80;;;11.90;99.90;;;;;;4959962;28;20517;-31
2024/02/19 18:04:11;;;;;;;13.00;7.57;;;11.90;99.90;;;;;;4960265;28;20446;-32
2024/02/19 18:06:39;;;;;;;12.83;7.90;;;11.90;99.90;;;;;;4958228;28;20410;-33
2024/02/19 18:09:10;;;;;;;10.90;7.83;;;11.90;99.90;;;;;;4960085;28;20411;-32
2024/02/19 18:11:37;;;;;;;9.33;6.93;;;11.90;99.90;;;;;;4960015;28;21142;-29
2024/02/19 18:14:03;;;;;;;11.57;7.80;;;11.90;99.90;;;;;;4959731;28;20437;-29
2024/02/19 18:16:30;;;;;;;12.90;8.20;;;11.90;99.90;;;;;;4957667;28;20433;-34
2024/02/19 18:18:56;;;;;;;12.20;8.70;;;11.90;99.90;;;;;;4957936;28;20977;-29
2024/02/19 18:21:23;;;;;;;11.23;7.97;;;11.90;99.90;;;;;;4942394;28;20423;-29
2024/02/19 18:23:54;;;;;;;14.80;7.90;;;11.90;99.90;;;;;;4941640;28;20434;-29
2024/02/19 18:26:23;;;;;;;11.43;9.10;;;11.90;99.90;;;;;;4958985;28;20446;-30
2024/02/19 18:28:51;;;;;;;11.13;8.87;;;11.90;99.90;;;;;;4958529;28;21201;-36
2024/02/19 18:31:18;;;;;;;15.83;9.30;;;11.90;99.90;;;;;;4959418;28;20422;-34
2024/02/19 18:33:44;;;;;;;18.27;10.20;;;11.90;99.90;;;;;;4960350;28;20980;-29
2024/02/19 18:36:10;;;;;;;12.67;8.67;;;11.90;99.90;;;;;;4957902;28;20418;-35
2024/02/19 18:38:38;;;;;;;15.20;10.73;;;11.90;99.90;;;;;;4941649;28;20854;-32
2024/02/19 18:41:08;;;;;;;14.70;10.20;;;11.90;99.90;;;;;;4959323;28;20876;-34
2024/02/19 18:43:35;;;;;;;17.63;10.60;;;11.90;99.90;;;;;;4960450;28;20996;-32
2024/02/19 18:46:01;;;;;;;15.63;10.10;;;11.90;99.90;;;;;;4958782;28;20414;-32
2024/02/19 18:48:30;;;;;;;15.97;11.13;;;11.90;99.90;;;;;;4941249;28;21297;-29
2024/02/19 18:51:00;;;;;;;19.50;10.80;;;11.90;99.90;;;;;;4941263;28;20509;-35
2024/02/19 18:53:26;;;;;;;12.63;9.30;;;11.90;99.90;;;;;;4958916;28;20537;-30
2024/02/19 18:56:02;;;;;;;12.40;9.63;;;11.90;99.90;;;;;;4959780;28;20406;-34
2024/02/19 18:58:29;;;;;;;14.70;10.23;;;11.90;99.90;;;;;;4957517;28;20465;-30
2024/02/19 19:00:59;;;;;;;12.23;9.90;;;11.80;99.90;;;;;;4959245;28;20406;-29
2024/02/19 19:03:26;;;;;;;18.03;10.67;;;11.80;99.90;;;;;;4958910;28;20571;-32
2024/02/19 19:05:54;;;;;;;22.27;11.27;;;11.90;99.90;;;;;;4959373;28;20419;-35
2024/02/19 19:08:23;;;;;;;17.47;10.63;;;11.80;99.90;;;;;;4962129;28;20448;-34
2024/02/19 19:10:49;;;;;;;15.77;10.90;;;11.80;99.90;;;;;;4963001;28;20423;-33
2024/02/19 19:13:18;;;;;;;14.27;9.73;;;11.80;99.90;;;;;;4963019;28;20537;-35
2024/02/19 19:15:44;;;;;;;16.40;10.60;;;11.80;99.90;;;;;;4963223;28;20430;-32
2024/02/19 19:18:11;;;;;;;13.63;9.83;;;11.80;99.90;;;;;;4944957;28;21061;-32
2024/02/19 19:20:41;;;;;;;14.03;10.50;;;11.80;99.90;;;;;;4962094;28;20414;-34
2024/02/19 19:23:09;;;;;;;14.83;10.00;;;11.80;99.90;;;;;;4944802;28;20442;-32
2024/02/19 19:25:35;;;;;;;12.70;9.87;;;11.80;99.90;;;;;;4962770;28;20512;-35
2024/02/19 19:28:02;;;;;;;16.57;9.70;;;11.80;99.90;;;;;;4960470;28;20454;-37
2024/02/19 19:30:28;;;;;;;12.47;9.67;;;11.80;99.90;;;;;;4961436;28;20425;-29
2024/02/19 19:32:58;;;;;;;12.90;10.17;;;11.80;99.90;;;;;;4960726;28;20957;-32
2024/02/19 19:35:27;;;;;;;14.83;10.13;;;11.80;99.90;;;;;;4945706;28;20553;-30
2024/02/19 19:37:53;;;;;;;15.47;10.47;;;11.80;99.90;;;;;;4963701;28;21331;-31
2024/02/19 19:40:22;;;;;;;16.27;10.17;;;11.80;99.90;;;;;;4963429;28;21252;-31
2024/02/19 19:42:48;;;;;;;12.10;9.30;;;11.80;99.90;;;;;;4946041;28;20449;-32
2024/02/19 19:45:15;;;;;;;15.17;8.70;;;11.80;99.90;;;;;;4963370;28;20422;-34
2024/02/19 19:47:41;;;;;;;12.80;8.77;;;11.80;99.90;;;;;;4963072;28;20418;-35
2024/02/19 19:50:08;;;;;;;12.73;8.97;;;11.80;99.90;;;;;;4963256;28;20414;-33
2024/02/19 19:52:37;;;;;;;12.57;9.17;;;11.80;99.90;;;;;;4961381;28;20465;-32
2024/02/19 19:55:05;;;;;;;12.30;8.30;;;11.80;99.90;;;;;;4963681;28;20454;-35
2024/02/19 19:57:34;;;;;;;9.60;8.03;;;11.80;99.90;;;;;;4963051;28;20477;-36
2024/02/19 20:00:04;;;;;;;9.53;7.80;;;11.80;99.90;;;;;;4945656;28;20427;-32
2024/02/19 20:02:35;;;;;;;10.20;7.43;;;11.80;99.90;;;;;;4945345;28;20429;-32
2024/02/19 20:05:05;;;;;;;13.00;8.60;;;11.80;99.90;;;;;;4963176;28;20529;-36
2024/02/19 20:07:31;;;;;;;10.77;8.07;;;11.80;99.90;;;;;;4962891;28;20423;-36
2024/02/19 20:10:02;;;;;;;11.47;7.87;;;11.80;99.90;;;;;;4929484;28;21022;-33
2024/02/19 20:12:31;;;;;;;12.30;7.70;;;11.80;99.90;;;;;;4963021;28;20411;-35
2024/02/19 20:14:58;;;;;;;15.60;6.73;;;11.80;99.90;;;;;;4962670;28;20487;-31
2024/02/19 20:17:25;;;;;;;15.10;8.43;;;11.80;99.90;;;;;;4944306;28;20489;-28
2024/02/19 20:19:52;;;;;;;14.27;7.90;;;11.80;99.90;;;;;;4961985;28;20443;-35
2024/02/19 20:22:18;;;;;;;15.40;7.87;;;11.80;99.90;;;;;;4962573;28;20414;-32
2024/02/19 20:24:44;;;;;;;13.47;7.37;;;11.80;99.90;;;;;;4963058;28;20535;-34
2024/02/19 20:27:12;;;;;;;12.30;7.13;;;11.80;99.90;;;;;;4962669;28;20864;-32
2024/02/19 20:29:43;;;;;;;14.80;7.80;;;11.80;99.90;;;;;;4944700;28;20508;-34
2024/02/19 20:32:13;;;;;;;12.40;6.87;;;11.80;99.90;;;;;;4960471;28;20430;-30
2024/02/19 20:34:45;;;;;;;12.30;6.43;;;11.80;99.90;;;;;;4960505;28;20849;-32
2024/02/19 20:37:11;;;;;;;14.07;6.23;;;11.70;99.90;;;;;;4961617;28;20462;-34
2024/02/19 20:39:37;;;;;;;13.53;7.40;;;11.70;99.90;;;;;;4962505;28;20525;-32
2024/02/19 20:42:04;;;;;;;11.43;5.87;;;11.70;99.90;;;;;;4961490;28;21393;-35
2024/02/19 20:44:31;;;;;;;12.93;5.93;;;11.70;99.90;;;;;;4960416;28;20441;-32
2024/02/19 20:46:59;;;;;;;16.20;6.73;;;11.70;99.90;;;;;;4962445;28;20841;-36
2024/02/19 20:49:25;;;;;;;12.47;6.20;;;11.70;99.90;;;;;;4962507;28;20407;-31
2024/02/19 20:51:51;;;;;;;8.00;5.13;;;11.70;99.90;;;;;;4962425;28;20525;-33
2024/02/19 20:54:17;;;;;;;16.20;6.97;;;11.70;99.90;;;;;;4945055;28;20463;-35
2024/02/19 20:56:43;;;;;;;10.50;5.93;;;11.70;99.90;;;;;;4944792;28;20825;-33
2024/02/19 20:59:15;;;;;;;14.47;6.10;;;11.70;99.90;;;;;;4962410;28;20419;-34
2024/02/19 21:01:46;;;;;;;13.83;6.00;;;11.70;99.90;;;;;;4962638;28;20419;-38
2024/02/19 21:04:15;;;;;;;17.30;5.47;;;11.70;99.90;;;;;;4960942;28;20462;-37
2024/02/19 21:06:42;;;;;;;12.03;6.13;;;11.70;99.90;;;;;;4962715;28;20406;-36
2024/02/19 21:09:08;;;;;;;11.17;5.60;;;11.70;99.90;;;;;;4944563;28;20481;-36
2024/02/19 21:11:34;;;;;;;13.33;6.17;;;11.70;99.90;;;;;;4962100;28;20474;-32
2024/02/19 21:14:00;;;;;;;10.80;5.97;;;11.70;99.90;;;;;;4960680;28;20552;-38
2024/02/19 21:16:45;;;;;;;13.90;5.57;;;11.70;99.90;;;;;;4960572;28;20425;-34
2024/02/19 21:19:15;;;;;;;11.17;5.57;;;11.70;99.90;;;;;;4961793;28;20440;-34
2024/02/19 21:21:41;;;;;;;11.90;5.50;;;11.70;99.90;;;;;;4962136;28;20411;-29
2024/02/19 21:24:07;;;;;;;8.67;5.67;;;11.70;99.90;;;;;;4959734;28;20446;-33
2024/02/19 21:26:33;;;;;;;14.30;5.60;;;11.70;99.90;;;;;;4962158;28;20547;-30
2024/02/19 21:28:59;;;;;;;14.90;5.77;;;11.70;99.90;;;;;;4959402;28;20423;-32
2024/02/19 21:31:25;;;;;;;18.03;6.13;;;11.70;99.90;;;;;;4943562;28;20935;-36
2024/02/19 21:33:53;;;;;;;11.07;6.10;;;11.70;99.90;;;;;;4960281;28;20520;-34
2024/02/19 21:36:21;;;;;;;9.77;4.87;;;11.70;99.90;;;;;;4944763;28;21091;-32
2024/02/19 21:38:47;;;;;;;11.60;5.60;;;11.70;99.90;;;;;;4962798;28;21016;-38
2024/02/19 21:41:15;;;;;;;17.13;5.90;;;11.70;99.90;;;;;;4961622;28;20426;-34
2024/02/19 21:43:41;;;;;;;14.90;5.30;;;11.60;99.90;;;;;;4961309;28;20447;-29
2024/02/19 21:46:08;;;;;;;12.07;4.90;;;11.70;99.90;;;;;;4960935;28;20438;-33
2024/02/19 21:48:36;;;;;;;12.77;5.40;;;11.70;99.90;;;;;;4960465;28;20457;-30
2024/02/19 21:51:07;;;;;;;11.37;5.23;;;11.70;99.90;;;;;;4944071;28;20509;-35
2024/02/19 21:53:35;;;;;;;16.73;5.13;;;11.70;99.90;;;;;;4961549;28;20449;-32
2024/02/19 21:56:02;;;;;;;15.30;5.30;;;11.70;99.90;;;;;;4962176;28;20501;-34
2024/02/19 21:58:30;;;;;;;18.13;6.27;;;11.70;99.90;;;;;;4960069;28;20454;-30
2024/02/19 22:00:56;;;;;;;16.13;4.77;;;11.60;99.90;;;;;;4960727;28;20593;-33
2024/02/19 22:03:22;;;;;;;11.87;5.23;;;11.60;99.90;;;;;;4943576;28;20458;-35
2024/02/19 22:05:49;;;;;;;12.63;4.77;;;11.60;99.90;;;;;;4944414;28;20488;-35
2024/02/19 22:08:18;;;;;;;13.13;5.20;;;11.60;99.90;;;;;;4943760;28;20414;-34
2024/02/19 22:10:44;;;;;;;11.23;4.70;;;11.60;99.90;;;;;;4960956;28;20457;-30
2024/02/19 22:13:11;;;;;;;13.23;5.27;;;11.60;99.90;;;;;;4960766;28;20461;-29
2024/02/19 22:15:36;;;;;;;16.40;5.03;;;11.60;99.90;;;;;;4943259;28;20426;-34
2024/02/19 22:18:03;;;;;;;11.67;4.47;;;11.60;99.90;;;;;;4959147;28;21049;-34
2024/02/19 22:20:31;;;;;;;14.80;4.77;;;11.60;99.90;;;;;;4960677;28;20465;-33
2024/02/19 22:22:59;;;;;;;9.23;3.80;;;11.60;99.90;;;;;;4960348;28;20431;-30
2024/02/19 22:25:25;;;;;;;13.20;4.90;;;11.60;99.90;;;;;;4942674;28;20431;-32
2024/02/19 22:27:53;;;;;;;13.63;5.40;;;11.60;99.90;;;;;;4958761;28;20451;-33
2024/02/19 22:30:22;;;;;;;12.67;4.17;;;11.60;99.90;;;;;;4960456;28;20518;-35
2024/02/19 22:32:49;;;;;;;16.27;5.60;;;11.60;99.90;;;;;;4959273;28;20489;-32
2024/02/19 22:35:14;;;;;;;11.37;4.10;;;11.60;99.90;;;;;;4960583;28;20485;-34
2024/02/19 22:37:42;;;;;;;8.80;4.60;;;11.60;99.90;;;;;;4960793;28;20466;-30
2024/02/19 22:40:11;;;;;;;14.90;4.83;;;11.60;99.90;;;;;;4960245;28;20497;-30
2024/02/19 22:42:39;;;;;;;20.40;5.43;;;11.60;99.90;;;;;;4961644;28;20399;-33
2024/02/19 22:45:06;;;;;;;11.53;4.60;;;11.60;99.90;;;;;;4946817;28;20415;-30
2024/02/19 22:47:35;;;;;;;13.10;5.20;;;11.60;99.90;;;;;;4964672;28;20974;-34
2024/02/19 22:50:03;;;;;;;14.43;5.03;;;11.60;99.90;;;;;;4964484;28;20429;-33
2024/02/19 22:52:32;;;;;;;16.40;3.60;;;11.60;99.90;;;;;;4946726;28;20469;-34
2024/02/19 22:54:59;;;;;;;12.53;4.20;;;11.60;99.90;;;;;;4964356;28;20442;-30
2024/02/19 22:57:25;;;;;;;15.27;5.03;;;11.60;99.90;;;;;;4962907;28;20466;-33
2024/02/19 22:59:54;;;;;;;12.60;4.40;;;11.60;99.90;;;;;;4964335;28;20446;-34
2024/02/19 23:02:19;;;;;;;12.47;4.30;;;11.60;99.90;;;;;;4964912;28;20501;-31
2024/02/19 23:04:47;;;;;;;17.53;4.50;;;11.60;99.90;;;;;;4963637;28;20577;-35
2024/02/19 23:07:13;;;;;;;15.20;4.07;;;11.60;99.90;;;;;;4946718;28;20495;-31
2024/02/19 23:09:43;;;;;;;14.83;5.20;;;11.60;99.90;;;;;;4961982;28;20466;-31
2024/02/19 23:12:12;;;;;;;8.63;4.40;;;11.60;99.90;;;;;;4964066;28;20423;-34
2024/02/19 23:14:41;;;;;;;12.73;4.20;;;11.60;99.90;;;;;;4963650;28;20529;-34
2024/02/19 23:17:07;;;;;;;13.57;4.03;;;11.60;99.90;;;;;;4963984;28;20925;-35
2024/02/19 23:19:33;;;;;;;11.87;4.13;;;11.60;99.90;;;;;;4963696;28;20438;-31
2024/02/19 23:21:59;;;;;;;15.43;4.23;;;11.60;99.90;;;;;;4962888;28;20461;-32
2024/02/19 23:24:27;;;;;;;11.53;4.40;;;11.60;99.90;;;;;;4963690;28;20462;-33
2024/02/19 23:26:53;;;;;;;15.30;4.20;;;11.60;99.90;;;;;;4962665;28;20922;-31
2024/02/19 23:29:21;;;;;;;18.13;4.40;;;11.60;99.90;;;;;;4963950;28;20422;-37
2024/02/19 23:31:48;;;;;;;22.47;4.40;;;11.60;99.90;;;;;;4964121;28;20453;-33
2024/02/19 23:34:16;;;;;;;11.93;4.40;;;11.50;99.90;;;;;;4963541;28;20516;-34
2024/02/19 23:36:44;;;;;;;9.67;4.60;;;11.50;99.90;;;;;;4961960;28;20452;-31
2024/02/19 23:39:12;;;;;;;14.23;4.40;;;11.50;99.90;;;;;;4945231;28;20444;-32
2024/02/19 23:41:38;;;;;;;12.63;4.50;;;11.50;99.90;;;;;;4962274;28;20526;-35
2024/02/19 23:44:04;;;;;;;11.93;3.33;;;11.50;99.90;;;;;;4961651;28;20541;-32
2024/02/19 23:46:30;;;;;;;12.00;4.40;;;11.50;99.90;;;;;;4963932;28;20175;-32
2024/02/19 23:48:56;;;;;;;14.90;4.27;;;11.50;99.90;;;;;;4963463;28;20783;-35
2024/02/19 23:51:28;;;;;;;9.20;3.60;;;11.50;99.90;;;;;;4961771;28;20265;-32
2024/02/19 23:53:57;;;;;;;11.00;4.13;;;11.50;99.90;;;;;;4944368;28;20478;-33
2024/02/19 23:56:24;;;;;;;16.87;4.77;;;11.50;99.90;;;;;;4962905;28;21008;-33
2024/02/19 23:58:52;;;;;;;11.50;4.10;;;11.50;99.90;;;;;;4963438;28;20882;-33
